Time;durP1;ratioP1;P1;durP2;ratioP2;P2;SDS_P1;SDS_P2;PMS_P1;PMS_P2;Temp;Humidity;BMP_temperature;BMP_pressure;BME280_temperature;BME280_humidity;BME280_pressure;Samples;Min_cycle;Max_cycle;Signal;HPM_P1;HPM_P2
2022/03/13 00:00:11;;;;;;;13.88;7.90;;;;;;;;;;5015181;28;20416;-73
2022/03/13 00:02:45;;;;;;;14.80;8.57;;;;;;;;;;5014610;28;20045;-73
2022/03/13 00:05:18;;;;;;;12.93;7.80;;;;;;;;;;5013783;28;20046;-73
2022/03/13 00:07:47;;;;;;;15.13;7.82;;;;;;;;;;5013269;28;20042;-73
2022/03/13 00:10:20;;;;;;;14.43;8.40;;;;;;;;;;5014745;28;20048;-73
2022/03/13 00:12:52;;;;;;;13.82;8.50;;;;;;;;;;5014764;28;20096;-73
2022/03/13 00:15:32;;;;;;;15.25;8.35;;;;;;;;;;5013142;28;20057;-74
2022/03/13 00:18:03;;;;;;;13.68;7.82;;;;;;;;;;4997047;28;20073;-74
2022/03/13 00:20:35;;;;;;;12.73;8.05;;;;;;;;;;5013896;28;20438;-73
2022/03/13 00:23:09;;;;;;;18.42;9.25;;;;;;;;;;5013239;28;20050;-73
2022/03/13 00:25:36;;;;;;;14.13;8.13;;;;;;;;;;5013667;28;20080;-73
2022/03/13 00:28:29;;;;;;;14.10;8.40;;;;;;;;;;5014462;28;20099;-73
2022/03/13 00:31:01;;;;;;;13.43;8.20;;;;;;;;;;4996726;28;20084;-73
2022/03/13 00:33:34;;;;;;;15.93;8.98;;;;;;;;;;5013994;28;20046;-72
2022/03/13 00:36:04;;;;;;;16.70;8.60;;;;;;;;;;5013077;28;20104;-72
2022/03/13 00:38:31;;;;;;;15.63;9.05;;;;;;;;;;5012851;28;20131;-73
2022/03/13 00:41:03;;;;;;;14.38;8.43;;;;;;;;;;5012940;28;20042;-73
2022/03/13 00:43:31;;;;;;;14.35;7.97;;;;;;;;;;5012709;28;20456;-74
2022/03/13 00:46:03;;;;;;;15.30;8.00;;;;;;;;;;4996702;28;20044;-73
2022/03/13 00:48:36;;;;;;;16.75;8.60;;;;;;;;;;4996223;28;20057;-73
2022/03/13 00:51:06;;;;;;;13.23;8.55;;;;;;;;;;5012892;28;20474;-72
2022/03/13 00:53:39;;;;;;;14.93;9.18;;;;;;;;;;5012889;28;20037;-73
2022/03/13 00:56:12;;;;;;;14.32;8.82;;;;;;;;;;5012611;28;20054;-72
2022/03/13 00:58:40;;;;;;;15.63;9.25;;;;;;;;;;5012428;28;20136;-73
2022/03/13 01:01:33;;;;;;;15.82;8.77;;;;;;;;;;5012838;28;20044;-73
2022/03/13 01:04:26;;;;;;;14.65;8.40;;;;;;;;;;5013354;28;20053;-73
2022/03/13 01:07:19;;;;;;;14.48;8.50;;;;;;;;;;4995948;28;20137;-73
2022/03/13 01:10:12;;;;;;;14.88;8.18;;;;;;;;;;5014022;28;20493;-74
2022/03/13 01:12:45;;;;;;;13.52;8.25;;;;;;;;;;5012746;28;20120;-72
2022/03/13 01:15:15;;;;;;;16.02;9.25;;;;;;;;;;5013824;28;20057;-73
2022/03/13 01:17:45;;;;;;;16.08;8.80;;;;;;;;;;5013680;28;20073;-73
2022/03/13 01:20:17;;;;;;;14.55;8.30;;;;;;;;;;4995914;28;20046;-73
2022/03/13 01:22:46;;;;;;;15.00;8.25;;;;;;;;;;5013691;28;20532;-73
2022/03/13 01:25:15;;;;;;;14.25;8.90;;;;;;;;;;4995908;28;20034;-73
2022/03/13 01:27:50;;;;;;;15.88;9.25;;;;;;;;;;5012832;28;20080;-73
2022/03/13 01:30:19;;;;;;;14.38;7.85;;;;;;;;;;5013615;28;20046;-73
2022/03/13 01:32:52;;;;;;;14.05;8.82;;;;;;;;;;4995353;28;20050;-73
2022/03/13 01:35:26;;;;;;;13.60;8.10;;;;;;;;;;4995994;28;20050;-73
2022/03/13 01:37:57;;;;;;;15.40;9.15;;;;;;;;;;5012146;28;20144;-73
2022/03/13 01:40:28;;;;;;;16.23;9.68;;;;;;;;;;5012777;28;20069;-73
2022/03/13 01:42:59;;;;;;;13.38;8.55;;;;;;;;;;5013276;28;20558;-73
2022/03/13 01:45:29;;;;;;;13.52;8.45;;;;;;;;;;5012570;28;20378;-73
2022/03/13 01:47:59;;;;;;;14.32;9.82;;;;;;;;;;5013264;28;20515;-73
2022/03/13 01:50:39;;;;;;;15.80;9.35;;;;;;;;;;5012135;28;20088;-73
2022/03/13 01:53:08;;;;;;;12.32;8.25;;;;;;;;;;5013102;28;20463;-73
2022/03/13 01:56:01;;;;;;;16.88;8.45;;;;;;;;;;5011977;28;20038;-73
2022/03/13 01:58:28;;;;;;;14.48;8.57;;;;;;;;;;4994982;28;20050;-73
2022/03/13 02:01:01;;;;;;;14.07;8.10;;;;;;;;;;5013369;28;20507;-73
2022/03/13 02:03:30;;;;;;;13.90;8.63;;;;;;;;;;5011922;28;20102;-73
2022/03/13 02:06:02;;;;;;;15.07;8.82;;;;;;;;;;5011717;28;20493;-73
2022/03/13 02:08:30;;;;;;;13.82;8.13;;;;;;;;;;4995461;28;20386;-72
2022/03/13 02:11:02;;;;;;;17.17;9.02;;;;;;;;;;5011887;28;20428;-72
2022/03/13 02:13:32;;;;;;;16.58;8.43;;;;;;;;;;5012295;28;20150;-74
2022/03/13 02:16:08;;;;;;;19.58;8.77;;;;;;;;;;5013209;28;20050;-72
2022/03/13 02:18:39;;;;;;;17.25;8.95;;;;;;;;;;5011728;28;20045;-72
2022/03/13 02:21:08;;;;;;;16.08;8.95;;;;;;;;;;5011736;28;20050;-72
2022/03/13 02:23:38;;;;;;;14.63;8.05;;;;;;;;;;5012837;28;20042;-72
2022/03/13 02:26:21;;;;;;;14.48;8.38;;;;;;;;;;4995228;28;20548;-73
2022/03/13 02:28:52;;;;;;;14.75;8.70;;;;;;;;;;5013094;28;20056;-73
2022/03/13 02:31:45;;;;;;;13.73;7.82;;;;;;;;;;5011148;28;20049;-72
2022/03/13 02:34:39;;;;;;;15.68;8.93;;;;;;;;;;5011702;28;20522;-72
2022/03/13 02:37:17;;;;;;;15.40;8.00;;;;;;;;;;5012874;28;20503;-72
2022/03/13 02:39:47;;;;;;;16.08;8.98;;;;;;;;;;5013110;28;20048;-73
2022/03/13 02:42:17;;;;;;;14.50;8.18;;;;;;;;;;4995445;28;20053;-72
2022/03/13 02:44:49;;;;;;;13.75;7.95;;;;;;;;;;4997781;28;20038;-72
2022/03/13 02:47:19;;;;;;;17.25;9.00;;;;;;;;;;5016188;28;20073;-73
2022/03/13 02:49:51;;;;;;;13.20;8.38;;;;;;;;;;5015146;28;20038;-73
2022/03/13 02:52:24;;;;;;;13.88;8.40;;;;;;;;;;5016277;28;20117;-73
2022/03/13 02:54:52;;;;;;;13.77;8.65;;;;;;;;;;5016244;28;20046;-72
2022/03/13 02:57:20;;;;;;;12.45;8.00;;;;;;;;;;5014838;28;20041;-72
2022/03/13 02:59:49;;;;;;;16.60;9.02;;;;;;;;;;5016107;28;20096;-72
2022/03/13 03:02:19;;;;;;;12.93;8.05;;;;;;;;;;4998091;28;20573;-72
2022/03/13 03:04:53;;;;;;;14.43;8.68;;;;;;;;;;5016423;28;20457;-73
2022/03/13 03:07:24;;;;;;;13.77;8.50;;;;;;;;;;5015760;28;20069;-73
2022/03/13 03:09:51;;;;;;;13.13;8.23;;;;;;;;;;5014222;28;20156;-73
2022/03/13 03:12:23;;;;;;;12.90;7.78;;;;;;;;;;5014974;28;20405;-73
2022/03/13 03:15:17;;;;;;;13.75;8.23;;;;;;;;;;5015664;28;20060;-73
2022/03/13 03:17:46;;;;;;;14.07;8.27;;;;;;;;;;5014175;28;20050;-72
2022/03/13 03:20:20;;;;;;;13.32;7.95;;;;;;;;;;4998236;28;20053;-72
2022/03/13 03:22:48;;;;;;;15.07;9.27;;;;;;;;;;5015770;28;20097;-72
2022/03/13 03:25:40;;;;;;;14.20;8.55;;;;;;;;;;5015518;28;20053;-74
2022/03/13 03:28:17;;;;;;;13.88;7.97;;;;;;;;;;4997829;28;20038;-73
2022/03/13 03:30:45;;;;;;;13.80;8.55;;;;;;;;;;5015532;28;20061;-73
2022/03/13 03:33:17;;;;;;;12.40;7.45;;;;;;;;;;5015558;28;20033;-72
2022/03/13 03:35:49;;;;;;;14.15;8.13;;;;;;;;;;4997479;28;20056;-72
2022/03/13 03:38:17;;;;;;;13.57;7.72;;;;;;;;;;4998066;28;20052;-73
2022/03/13 03:40:51;;;;;;;13.55;8.40;;;;;;;;;;5015640;28;20457;-73
2022/03/13 03:43:25;;;;;;;16.60;8.43;;;;;;;;;;5013721;28;20045;-73
2022/03/13 03:45:56;;;;;;;13.95;8.05;;;;;;;;;;5014883;28;20396;-73
2022/03/13 03:48:26;;;;;;;14.52;8.23;;;;;;;;;;5013773;28;20050;-73
2022/03/13 03:51:18;;;;;;;15.63;8.63;;;;;;;;;;5015119;28;20050;-72
2022/03/13 03:53:48;;;;;;;12.88;7.70;;;;;;;;;;4997478;28;20046;-72
2022/03/13 03:56:15;;;;;;;10.73;7.38;;;;;;;;;;5015024;28;20121;-72
2022/03/13 03:58:48;;;;;;;12.10;7.80;;;;;;;;;;4997279;28;20042;-73
2022/03/13 04:01:22;;;;;;;13.02;7.50;;;;;;;;;;5013831;28;20074;-72
2022/03/13 04:04:15;;;;;;;15.07;8.25;;;;;;;;;;5014746;28;20045;-73
2022/03/13 04:06:44;;;;;;;13.52;8.20;;;;;;;;;;5014822;28;20100;-72
2022/03/13 04:09:14;;;;;;;14.18;8.30;;;;;;;;;;5015165;28;20045;-73
2022/03/13 04:11:47;;;;;;;12.18;7.63;;;;;;;;;;5013659;28;20152;-73
2022/03/13 04:14:40;;;;;;;14.63;7.88;;;;;;;;;;5014827;28;20085;-73
2022/03/13 04:17:13;;;;;;;15.85;8.25;;;;;;;;;;5013695;28;20120;-74
2022/03/13 04:19:40;;;;;;;20.73;8.02;;;;;;;;;;5015041;28;20050;-73
2022/03/13 04:22:18;;;;;;;14.48;9.05;;;;;;;;;;5014448;28;20559;-73
2022/03/13 04:24:51;;;;;;;13.95;7.90;;;;;;;;;;5014644;28;20468;-73
2022/03/13 04:27:23;;;;;;;16.08;9.32;;;;;;;;;;5013570;28;20141;-72
2022/03/13 04:29:51;;;;;;;17.08;9.48;;;;;;;;;;4996264;28;20132;-73
2022/03/13 04:32:23;;;;;;;19.60;10.73;;;;;;;;;;4996737;28;20049;-73
2022/03/13 04:34:50;;;;;;;19.08;10.68;;;;;;;;;;5014775;28;20046;-73
2022/03/13 04:37:24;;;;;;;18.38;9.93;;;;;;;;;;4996343;28;20456;-73
2022/03/13 04:39:58;;;;;;;36.33;16.75;;;;;;;;;;5015052;28;20045;-72
2022/03/13 04:42:27;;;;;;;15.43;9.47;;;;;;;;;;5013911;28;20042;-73
2022/03/13 04:44:58;;;;;;;14.98;8.90;;;;;;;;;;4996456;28;20049;-73
2022/03/13 04:47:32;;;;;;;13.70;8.27;;;;;;;;;;5014186;28;20121;-73
2022/03/13 04:50:00;;;;;;;13.88;8.15;;;;;;;;;;5013336;28;20116;-73
2022/03/13 04:52:37;;;;;;;17.20;9.32;;;;;;;;;;5014318;28;20042;-73
2022/03/13 04:55:30;;;;;;;15.40;9.10;;;;;;;;;;4996724;28;20050;-73
2022/03/13 04:57:59;;;;;;;13.82;8.23;;;;;;;;;;4996161;28;20049;-72
2022/03/13 05:00:29;;;;;;;14.43;8.18;;;;;;;;;;4996560;28;20049;-73
2022/03/13 05:03:02;;;;;;;15.13;9.30;;;;;;;;;;5012728;28;20096;-73
2022/03/13 05:05:55;;;;;;;16.60;9.20;;;;;;;;;;5012397;28;20050;-72
2022/03/13 05:08:49;;;;;;;17.63;10.20;;;;;;;;;;4996366;28;20038;-73
2022/03/13 05:11:22;;;;;;;18.27;10.80;;;;;;;;;;5014183;28;20485;-72
2022/03/13 05:13:56;;;;;;;17.35;10.20;;;;;;;;;;5013765;28;20461;-74
2022/03/13 05:16:49;;;;;;;21.98;12.52;;;;;;;;;;5012499;28;20160;-74
2022/03/13 05:19:17;;;;;;;19.20;10.18;;;;;;;;;;5013072;28;20117;-74
2022/03/13 05:21:47;;;;;;;23.55;12.10;;;;;;;;;;5013643;28;20413;-73
2022/03/13 05:24:16;;;;;;;21.45;10.88;;;;;;;;;;5013881;28;20056;-73
2022/03/13 05:26:47;;;;;;;19.92;10.93;;;;;;;;;;5013476;28;20065;-73
2022/03/13 05:29:20;;;;;;;22.23;11.55;;;;;;;;;;5012415;28;20133;-74
2022/03/13 05:31:52;;;;;;;23.02;12.68;;;;;;;;;;4995938;28;20068;-74
2022/03/13 05:34:24;;;;;;;19.88;11.40;;;;;;;;;;5012201;28;20042;-73
2022/03/13 05:36:54;;;;;;;19.67;9.30;;;;;;;;;;5012138;28;20050;-72
2022/03/13 05:39:22;;;;;;;16.10;9.88;;;;;;;;;;4996255;28;20124;-73
2022/03/13 05:41:58;;;;;;;15.85;9.57;;;;;;;;;;5013167;28;20046;-74
2022/03/13 05:44:26;;;;;;;19.00;10.80;;;;;;;;;;5011969;28;20112;-74
2022/03/13 05:47:18;;;;;;;19.08;10.50;;;;;;;;;;4995596;28;20354;-74
2022/03/13 05:49:49;;;;;;;17.55;10.48;;;;;;;;;;5012343;28;20042;-73
2022/03/13 05:52:22;;;;;;;22.95;13.88;;;;;;;;;;4995729;28;20048;-73
2022/03/13 05:54:54;;;;;;;19.45;11.90;;;;;;;;;;5013291;28;20092;-74
2022/03/13 05:57:29;;;;;;;18.05;11.23;;;;;;;;;;4995678;28;20393;-74
2022/03/13 06:00:00;;;;;;;21.52;12.50;;;;;;;;;;4997434;28;20076;-73
2022/03/13 06:02:31;;;;;;;14.60;8.95;;;;;;;;;;5012968;28;20069;-74
2022/03/13 06:05:04;;;;;;;20.98;11.40;;;;;;;;;;5013246;28;20393;-74
2022/03/13 06:07:32;;;;;;;17.63;9.38;;;;;;;;;;5014109;28;20571;-73
2022/03/13 06:10:03;;;;;;;19.75;11.55;;;;;;;;;;5032034;28;20040;-73
2022/03/13 06:12:35;;;;;;;11.70;8.32;;;;;;;;;;5032133;28;20073;-74
2022/03/13 06:15:04;;;;;;;10.93;7.57;;;;;;;;;;5030000;28;20053;-74
2022/03/13 06:17:33;;;;;;;11.05;8.00;;;;;;;;;;5014355;28;21515;-73
2022/03/13 06:20:11;;;;;;;10.60;7.32;;;;;;;;;;5033991;28;20128;-73
2022/03/13 06:22:42;;;;;;;12.93;7.55;;;;;;;;;;5017477;28;20073;-73
2022/03/13 06:25:13;;;;;;;9.98;7.57;;;;;;;;;;5033741;28;20143;-74
2022/03/13 06:27:41;;;;;;;9.68;7.82;;;;;;;;;;5035224;28;20126;-74
2022/03/13 06:30:12;;;;;;;10.27;7.70;;;;;;;;;;5034159;28;20049;-74
2022/03/13 06:32:47;;;;;;;9.98;8.20;;;;;;;;;;5015302;28;20568;-74
2022/03/13 06:35:17;;;;;;;11.43;10.20;;;;;;;;;;5034549;28;20041;-74
2022/03/13 06:37:45;;;;;;;10.15;7.60;;;;;;;;;;5016983;28;20038;-74
2022/03/13 06:40:16;;;;;;;8.43;7.53;;;;;;;;;;5033303;28;20392;-74
2022/03/13 06:42:43;;;;;;;9.77;7.90;;;;;;;;;;5017368;28;20038;-73
2022/03/13 06:45:12;;;;;;;10.02;8.10;;;;;;;;;;5033167;28;20481;-73
2022/03/13 06:47:40;;;;;;;9.45;8.45;;;;;;;;;;5033807;28;20132;-73
2022/03/13 06:50:10;;;;;;;9.70;8.70;;;;;;;;;;5034004;28;20369;-73
2022/03/13 06:52:41;;;;;;;10.57;9.02;;;;;;;;;;5017488;28;20045;-74
2022/03/13 06:55:09;;;;;;;10.25;8.90;;;;;;;;;;5033977;28;20547;-73
2022/03/13 06:57:36;;;;;;;9.15;7.97;;;;;;;;;;5035374;28;20435;-73
2022/03/13 07:00:04;;;;;;;9.77;8.32;;;;;;;;;;5035178;28;20044;-74
2022/03/13 07:02:35;;;;;;;10.50;8.15;;;;;;;;;;5035758;28;20562;-75
2022/03/13 07:05:09;;;;;;;14.00;8.32;;;;;;;;;;5018577;28;20045;-74
2022/03/13 07:07:36;;;;;;;13.77;9.03;;;;;;;;;;5018113;28;20103;-74
2022/03/13 07:10:06;;;;;;;11.52;9.57;;;;;;;;;;5017360;28;20095;-75
2022/03/13 07:12:46;;;;;;;11.18;9.68;;;;;;;;;;5034221;28;20041;-73
2022/03/13 07:15:18;;;;;;;10.60;9.50;;;;;;;;;;5034416;28;20051;-74
2022/03/13 07:17:51;;;;;;;11.80;9.20;;;;;;;;;;5035722;28;20528;-74
2022/03/13 07:20:20;;;;;;;12.68;9.38;;;;;;;;;;5035821;28;20107;-74
2022/03/13 07:23:13;;;;;;;13.77;9.30;;;;;;;;;;5035675;28;20468;-75
2022/03/13 07:25:41;;;;;;;11.02;9.52;;;;;;;;;;5035733;28;20049;-75
2022/03/13 07:28:33;;;;;;;10.10;8.90;;;;;;;;;;5034001;28;20054;-75
2022/03/13 07:31:26;;;;;;;11.82;8.98;;;;;;;;;;5035241;28;20107;-75
2022/03/13 07:33:55;;;;;;;11.50;8.60;;;;;;;;;;5017328;28;20076;-75
2022/03/13 07:36:25;;;;;;;11.75;9.20;;;;;;;;;;5018088;28;20133;-76
2022/03/13 07:38:57;;;;;;;11.80;8.48;;;;;;;;;;5035132;28;20500;-75
2022/03/13 07:41:33;;;;;;;12.55;8.68;;;;;;;;;;5017352;28;20045;-74
2022/03/13 07:44:03;;;;;;;11.55;8.00;;;;;;;;;;5033829;28;20056;-69
2022/03/13 07:46:39;;;;;;;12.13;8.38;;;;;;;;;;5016980;28;20088;-69
2022/03/13 07:49:07;;;;;;;12.80;8.10;;;;;;;;;;5033755;28;20128;-69
2022/03/13 07:51:43;;;;;;;11.85;8.18;;;;;;;;;;5035082;28;20045;-68
2022/03/13 07:54:36;;;;;;;14.82;9.25;;;;;;;;;;5035376;28;20501;-68
2022/03/13 07:57:29;;;;;;;15.70;8.98;;;;;;;;;;5034677;28;20041;-70
2022/03/13 08:00:01;;;;;;;20.40;12.50;;;;;;;;;;5033536;28;20056;-69
2022/03/13 08:02:32;;;;;;;16.95;9.73;;;;;;;;;;5033820;28;20068;-68
2022/03/13 08:05:01;;;;;;;13.40;8.75;;;;;;;;;;5033475;28;20060;-71
2022/03/13 08:07:34;;;;;;;12.80;8.38;;;;;;;;;;5033439;28;20119;-72
2022/03/13 08:10:02;;;;;;;15.10;8.60;;;;;;;;;;5031154;28;20045;-73
2022/03/13 08:12:32;;;;;;;12.45;7.90;;;;;;;;;;5006797;28;20049;-71
2022/03/13 08:15:00;;;;;;;10.93;7.75;;;;;;;;;;5023942;28;20133;-71
2022/03/13 08:17:29;;;;;;;13.57;9.85;;;;;;;;;;5009789;28;20037;-72
2022/03/13 08:20:00;;;;;;;11.20;8.55;;;;;;;;;;5013319;28;20045;-72
2022/03/13 08:22:30;;;;;;;16.05;9.75;;;;;;;;;;5025546;28;20443;-72
2022/03/13 08:25:02;;;;;;;11.80;7.95;;;;;;;;;;5022405;28;20064;-72
2022/03/13 08:27:35;;;;;;;25.88;15.13;;;;;;;;;;5034176;28;20045;-74
2022/03/13 08:30:07;;;;;;;26.98;17.20;;;;;;;;;;5034469;28;20115;-73
2022/03/13 08:32:40;;;;;;;23.05;14.68;;;;;;;;;;5017156;28;20049;-72
2022/03/13 08:35:32;;;;;;;15.25;10.20;;;;;;;;;;5024741;28;20046;-72
2022/03/13 08:38:00;;;;;;;14.02;8.35;;;;;;;;;;5033907;28;20061;-73
2022/03/13 08:40:33;;;;;;;12.98;8.43;;;;;;;;;;5034055;28;20465;-72
2022/03/13 08:43:06;;;;;;;11.25;7.38;;;;;;;;;;5033779;28;20120;-72
2022/03/13 08:45:44;;;;;;;12.65;7.05;;;;;;;;;;5036570;28;20064;-73
2022/03/13 08:48:14;;;;;;;;;;;;;;;;;;5033716;28;20050;-72
2022/03/13 08:51:27;;;;;;;11.02;7.50;;;;;;;;;;5034066;28;19927;-74
2022/03/13 08:54:20;;;;;;;11.82;7.53;;;;;;;;;;5033888;28;20053;-73
2022/03/13 08:57:16;;;;;;;11.30;7.80;;;;;;;;;;5012487;28;20050;-71
2022/03/13 08:59:47;;;;;;;27.27;19.05;;;;;;;;;;5012556;28;20496;-71
2022/03/13 09:02:21;;;;;;;13.02;8.80;;;;;;;;;;4980313;28;20081;-73
2022/03/13 09:05:14;;;;;;;13.10;9.60;;;;;;;;;;4996503;28;20058;-73
2022/03/13 09:08:07;;;;;;;12.00;8.10;;;;;;;;;;5016664;28;20436;-74
2022/03/13 09:11:00;;;;;;;13.18;8.40;;;;;;;;;;5015040;28;20080;-73
2022/03/13 09:13:32;;;;;;;11.07;7.40;;;;;;;;;;5013947;28;20045;-73
2022/03/13 09:16:00;;;;;;;11.32;7.90;;;;;;;;;;5013643;28;20061;-73
2022/03/13 09:18:53;;;;;;;12.40;7.85;;;;;;;;;;5013747;28;20397;-74
2022/03/13 09:21:24;;;;;;;13.50;7.20;;;;;;;;;;4995825;28;20070;-74
2022/03/13 09:24:01;;;;;;;15.40;7.72;;;;;;;;;;5013847;28;20078;-73
2022/03/13 09:26:29;;;;;;;13.52;8.07;;;;;;;;;;5012244;28;20049;-73
2022/03/13 09:28:59;;;;;;;11.30;7.30;;;;;;;;;;5017847;28;20063;-73
2022/03/13 09:31:27;;;;;;;11.40;7.03;;;;;;;;;;4996190;28;20163;-71
2022/03/13 09:34:20;;;;;;;12.13;8.15;;;;;;;;;;5032865;28;20485;-72
2022/03/13 09:36:52;;;;;;;13.52;7.38;;;;;;;;;;5034036;28;20118;-73
2022/03/13 09:39:25;;;;;;;10.73;7.18;;;;;;;;;;5028273;28;20163;-73
2022/03/13 09:41:55;;;;;;;9.60;6.97;;;;;;;;;;4995516;28;20046;-73
2022/03/13 09:44:25;;;;;;;12.23;7.55;;;;;;;;;;5012097;28;20037;-72
2022/03/13 09:46:53;;;;;;;11.70;7.68;;;;;;;;;;5013555;28;20050;-72
2022/03/13 09:49:27;;;;;;;10.95;8.10;;;;;;;;;;4995737;28;20044;-73
2022/03/13 09:51:55;;;;;;;11.68;7.95;;;;;;;;;;5013404;28;20497;-72
2022/03/13 09:54:30;;;;;;;11.75;7.30;;;;;;;;;;4999824;28;20044;-73
2022/03/13 09:56:57;;;;;;;11.73;6.95;;;;;;;;;;5016122;28;20124;-73
2022/03/13 09:59:31;;;;;;;13.27;8.20;;;;;;;;;;5017280;28;20034;-73
2022/03/13 10:02:27;;;;;;;13.55;8.60;;;;;;;;;;5015945;28;20092;-71
2022/03/13 10:04:58;;;;;;;10.27;7.25;;;;;;;;;;5018125;28;20125;-74
2022/03/13 10:07:31;;;;;;;11.63;7.60;;;;;;;;;;4999937;28;20046;-73
2022/03/13 10:10:24;;;;;;;17.30;10.57;;;;;;;;;;5017609;28;20100;-73
2022/03/13 10:13:18;;;;;;;13.40;6.85;;;;;;;;;;5016537;28;20033;-74
2022/03/13 10:16:12;;;;;;;12.18;7.35;;;;;;;;;;4999172;28;20460;-73
2022/03/13 10:19:05;;;;;;;11.50;7.50;;;;;;;;;;5015473;28;20046;-74
2022/03/13 10:21:38;;;;;;;10.82;7.45;;;;;;;;;;4999281;28;20050;-73
2022/03/13 10:24:31;;;;;;;12.38;8.23;;;;;;;;;;4999082;28;20046;-73
2022/03/13 10:27:09;;;;;;;10.32;6.72;;;;;;;;;;4999695;28;20145;-75
2022/03/13 10:29:58;;;;;;;11.98;6.68;;;;;;;;;;5016836;28;20074;-74
2022/03/13 10:32:52;;;;;;;13.40;7.35;;;;;;;;;;5004710;28;20042;-70
2022/03/13 10:35:25;;;;;;;10.73;7.10;;;;;;;;;;4995311;28;20038;-69
2022/03/13 10:37:53;;;;;;;11.05;7.35;;;;;;;;;;4995821;28;20133;-69
2022/03/13 10:40:46;;;;;;;11.27;7.15;;;;;;;;;;4979749;28;20585;-68
2022/03/13 10:43:20;;;;;;;12.60;6.97;;;;;;;;;;5005592;28;20073;-69
2022/03/13 10:45:54;;;;;;;11.93;7.75;;;;;;;;;;5011777;28;20102;-69
2022/03/13 10:48:30;;;;;;;10.98;7.65;;;;;;;;;;4997205;28;20050;-69
2022/03/13 10:51:01;;;;;;;16.20;8.65;;;;;;;;;;4996622;28;20108;-70
2022/03/13 10:53:30;;;;;;;35.53;21.30;;;;;;;;;;5012022;28;20398;-70
2022/03/13 10:56:07;;;;;;;15.00;7.40;;;;;;;;;;5005416;28;20145;-69
2022/03/13 10:58:41;;;;;;;10.60;7.10;;;;;;;;;;4998707;28;20066;-70
2022/03/13 11:01:12;;;;;;;11.98;7.80;;;;;;;;;;4998667;28;20124;-69
2022/03/13 11:04:06;;;;;;;12.55;8.00;;;;;;;;;;5015959;28;20042;-70
2022/03/13 11:09:31;;;;;;;103.35;46.20;;;;;;;;;;5016471;28;20046;-70
2022/03/13 11:12:06;;;;;;;17.08;10.07;;;;;;;;;;4998261;28;20053;-69
2022/03/13 11:14:36;;;;;;;17.90;7.90;;;;;;;;;;4998582;28;20108;-70
2022/03/13 11:17:11;;;;;;;18.75;11.40;;;;;;;;;;5015506;28;20042;-69
2022/03/13 11:19:55;;;;;;;16.20;10.25;;;;;;;;;;5016048;28;20038;-68
2022/03/13 11:22:26;;;;;;;19.08;11.63;;;;;;;;;;5015524;28;20042;-69
2022/03/13 11:24:57;;;;;;;29.48;11.90;;;;;;;;;;4997641;28;20068;-69
2022/03/13 11:27:27;;;;;;;13.10;7.22;;;;;;;;;;5015423;28;20053;-69
2022/03/13 11:29:57;;;;;;;9.30;6.15;;;;;;;;;;5015961;28;20081;-70
2022/03/13 11:32:36;;;;;;;11.82;6.95;;;;;;;;;;5015962;28;20069;-69
2022/03/13 11:35:13;;;;;;;13.95;8.65;;;;;;;;;;5014173;28;20058;-70
2022/03/13 11:37:44;;;;;;;11.98;6.55;;;;;;;;;;5015309;28;20414;-70
2022/03/13 11:40:13;;;;;;;14.50;9.00;;;;;;;;;;5015565;28;20046;-69
2022/03/13 11:42:48;;;;;;;13.25;7.70;;;;;;;;;;5015508;28;20076;-70
2022/03/13 11:45:31;;;;;;;8.85;6.15;;;;;;;;;;5015580;28;20054;-69
2022/03/13 11:50:58;;;;;;;11.07;7.20;;;;;;;;;;5015986;28;20069;-69
2022/03/13 11:53:28;;;;;;;10.05;6.68;;;;;;;;;;5014759;28;20054;-68
2022/03/13 11:56:26;;;;;;;10.88;7.30;;;;;;;;;;5015461;28;20115;-71
2022/03/13 11:58:58;;;;;;;12.48;7.75;;;;;;;;;;5014092;28;20046;-69
2022/03/13 12:01:37;;;;;;;13.00;7.43;;;;;;;;;;5013849;28;20124;-69
2022/03/13 12:04:09;;;;;;;12.90;7.53;;;;;;;;;;5014799;28;20050;-69
2022/03/13 12:07:06;;;;;;;22.65;13.02;;;;;;;;;;5015350;28;20057;-70
2022/03/13 12:09:42;;;;;;;11.82;7.45;;;;;;;;;;5014751;28;20038;-70
2022/03/13 12:12:12;;;;;;;10.52;6.65;;;;;;;;;;5014709;28;20049;-70
2022/03/13 12:14:51;;;;;;;13.10;6.13;;;;;;;;;;5014772;28;20121;-70
2022/03/13 12:17:19;;;;;;;13.13;6.70;;;;;;;;;;5012147;28;20488;-69
2022/03/13 12:19:47;;;;;;;12.43;6.25;;;;;;;;;;5012537;28;20266;-69
2022/03/13 12:22:15;;;;;;;10.85;7.00;;;;;;;;;;4994759;28;20440;-69
2022/03/13 12:24:53;;;;;;;13.82;7.55;;;;;;;;;;4991005;28;20397;-69
2022/03/13 12:27:23;;;;;;;9.95;6.22;;;;;;;;;;4995045;28;20078;-68
2022/03/13 12:29:55;;;;;;;9.07;5.65;;;;;;;;;;4977061;28;20050;-68
2022/03/13 12:32:30;;;;;;;10.27;6.65;;;;;;;;;;5014148;28;20150;-70
2022/03/13 12:34:58;;;;;;;;;;;;;;;;;;5014645;28;20046;-68
2022/03/13 12:37:27;;;;;;;10.77;6.55;;;;;;;;;;5014809;28;19922;-69
2022/03/13 12:39:59;;;;;;;11.40;6.60;;;;;;;;;;5026060;28;20041;-69
2022/03/13 12:42:34;;;;;;;12.35;7.57;;;;;;;;;;5032567;28;20041;-68
2022/03/13 12:45:04;;;;;;;12.00;6.50;;;;;;;;;;5033834;28;20052;-67
2022/03/13 12:47:40;;;;;;;12.10;7.43;;;;;;;;;;5033668;28;20052;-69
2022/03/13 12:50:11;;;;;;;8.77;5.93;;;;;;;;;;5033833;28;20137;-69
2022/03/13 12:52:42;;;;;;;14.00;8.02;;;;;;;;;;5033927;28;20044;-70
2022/03/13 12:55:12;;;;;;;11.68;6.78;;;;;;;;;;5033315;28;20045;-70
2022/03/13 12:57:42;;;;;;;9.05;5.88;;;;;;;;;;5033390;28;20400;-70
2022/03/13 13:00:10;;;;;;;13.63;8.25;;;;;;;;;;5032294;28;20103;-69
2022/03/13 13:02:38;;;;;;;12.10;7.63;;;;;;;;;;5015793;28;20061;-70
2022/03/13 13:05:13;;;;;;;12.73;7.40;;;;;;;;;;5031602;28;20210;-69
2022/03/13 13:07:43;;;;;;;11.35;6.65;;;;;;;;;;5033274;28;20051;-71
2022/03/13 13:10:11;;;;;;;9.25;6.30;;;;;;;;;;5031704;28;20054;-69
2022/03/13 13:12:42;;;;;;;8.52;5.60;;;;;;;;;;5032334;28;20049;-71
2022/03/13 13:15:12;;;;;;;11.70;8.05;;;;;;;;;;5031920;28;20045;-69
2022/03/13 13:17:42;;;;;;;10.80;6.40;;;;;;;;;;5033321;28;20132;-69
2022/03/13 13:20:38;;;;;;;8.27;5.70;;;;;;;;;;5031795;28;20493;-68
2022/03/13 13:23:11;;;;;;;10.48;6.03;;;;;;;;;;5012997;28;20103;-70
2022/03/13 13:25:41;;;;;;;8.90;6.00;;;;;;;;;;5032328;28;20147;-72
2022/03/13 13:28:11;;;;;;;10.60;5.88;;;;;;;;;;5032765;28;20129;-70
2022/03/13 13:30:39;;;;;;;8.80;6.00;;;;;;;;;;5032858;28;20060;-69
2022/03/13 13:33:15;;;;;;;10.35;6.50;;;;;;;;;;5033052;28;20461;-70
2022/03/13 13:36:04;;;;;;;12.70;7.97;;;;;;;;;;5015520;28;20050;-68
2022/03/13 13:38:33;;;;;;;14.02;8.95;;;;;;;;;;5033855;28;20132;-68
2022/03/13 13:41:03;;;;;;;12.15;6.80;;;;;;;;;;5033452;28;20038;-68
2022/03/13 13:43:34;;;;;;;12.23;7.15;;;;;;;;;;5033591;28;20109;-67
2022/03/13 13:46:14;;;;;;;10.27;6.60;;;;;;;;;;5033005;28;20045;-68
2022/03/13 13:48:49;;;;;;;7.38;5.30;;;;;;;;;;5033278;28;20048;-68
2022/03/13 13:51:31;;;;;;;11.07;7.22;;;;;;;;;;5034022;28;20049;-72
2022/03/13 13:54:05;;;;;;;9.02;6.70;;;;;;;;;;5033285;28;20048;-70
2022/03/13 13:56:39;;;;;;;10.15;6.18;;;;;;;;;;5032605;28;20461;-71
2022/03/13 13:59:17;;;;;;;8.07;5.60;;;;;;;;;;5015220;28;20041;-69
2022/03/13 14:01:45;;;;;;;10.07;6.55;;;;;;;;;;5031474;28;20141;-69
2022/03/13 14:04:16;;;;;;;13.48;7.78;;;;;;;;;;5032869;28;20042;-68
2022/03/13 14:06:46;;;;;;;11.27;7.10;;;;;;;;;;5015207;28;20049;-68
2022/03/13 14:09:16;;;;;;;19.67;11.13;;;;;;;;;;5015692;28;20451;-69
2022/03/13 14:11:44;;;;;;;15.65;9.70;;;;;;;;;;5032582;28;20079;-69
2022/03/13 14:14:12;;;;;;;15.45;9.70;;;;;;;;;;5014879;28;20053;-69
2022/03/13 14:16:39;;;;;;;15.48;9.27;;;;;;;;;;5032983;28;20116;-70
2022/03/13 14:19:29;;;;;;;24.63;10.50;;;;;;;;;;5032928;28;20120;-68
2022/03/13 14:22:00;;;;;;;29.50;11.65;;;;;;;;;;5024838;28;20065;-69
2022/03/13 14:24:29;;;;;;;57.00;18.52;;;;;;;;;;5030386;28;20046;-69
2022/03/13 14:26:56;;;;;;;17.60;8.93;;;;;;;;;;5029385;28;20124;-70
2022/03/13 14:29:33;;;;;;;23.15;13.07;;;;;;;;;;5030353;28;20042;-71
2022/03/13 14:32:11;;;;;;;15.50;9.30;;;;;;;;;;5030978;28;20057;-69
2022/03/13 14:35:38;;;;;;;63.67;26.88;;;;;;;;;;5033135;28;20061;-71
2022/03/13 14:38:36;;;;;;;51.22;23.45;;;;;;;;;;5030119;28;20042;-71
2022/03/13 14:41:05;;;;;;;44.97;23.73;;;;;;;;;;5023114;28;20053;-71
2022/03/13 14:44:16;;;;;;;58.85;32.30;;;;;;;;;;5036731;28;20067;-70
2022/03/13 14:54:15;;;;;;;20.73;12.18;;;;;;;;;;5036956;28;20557;-71
2022/03/13 14:57:09;;;;;;;20.65;12.13;;;;;;;;;;5018742;28;20135;-71
2022/03/13 14:59:40;;;;;;;20.10;11.80;;;;;;;;;;5034611;28;20038;-73
2022/03/13 15:02:27;;;;;;;24.63;15.43;;;;;;;;;;5036625;28;20419;-72
2022/03/13 15:05:22;;;;;;;23.98;15.90;;;;;;;;;;5036868;28;20041;-71
2022/03/13 15:07:50;;;;;;;20.48;11.57;;;;;;;;;;5034843;28;20068;-69
2022/03/13 15:10:20;;;;;;;20.02;11.85;;;;;;;;;;5035640;28;20488;-73
2022/03/13 15:12:55;;;;;;;19.52;11.70;;;;;;;;;;5036363;28;20207;-71
2022/03/13 15:18:41;;;;;;;19.60;11.30;;;;;;;;;;5017153;28;20052;-69
2022/03/13 15:21:08;;;;;;;34.75;17.17;;;;;;;;;;5035483;28;20400;-70
2022/03/13 15:27:18;;;;;;;19.70;10.43;;;;;;;;;;5017633;28;20454;-70
2022/03/13 15:30:05;;;;;;;21.45;13.15;;;;;;;;;;5018319;28;20551;-68
2022/03/13 15:32:33;;;;;;;10.88;7.60;;;;;;;;;;5014878;28;20060;-68